Time;durP1;ratioP1;P1;durP2;ratioP2;P2;SDS_P1;SDS_P2;PMS_P1;PMS_P2;Temp;Humidity;BMP_temperature;BMP_pressure;BME280_temperature;BME280_humidity;BME280_pressure;Samples;Min_cycle;Max_cycle;Signal;HPM_P1;HPM_P2
2021/05/02 00:00:27;;;;;;;29.63;21.37;;;5.80;99.90;;;;;;5055402;28;20192;-50
2021/05/02 00:02:54;;;;;;;33.80;22.20;;;5.80;99.90;;;;;;5066762;28;20237;-50
2021/05/02 00:05:22;;;;;;;33.37;22.70;;;5.80;99.90;;;;;;5046680;28;20886;-49
2021/05/02 00:07:49;;;;;;;36.93;23.43;;;5.90;99.90;;;;;;5057829;28;20205;-51
2021/05/02 00:10:16;;;;;;;35.40;23.27;;;5.80;99.90;;;;;;5063246;28;20222;-54
2021/05/02 00:12:43;;;;;;;38.00;24.30;;;5.80;99.90;;;;;;5066591;28;20240;-52
2021/05/02 00:15:13;;;;;;;34.93;23.03;;;5.90;99.90;;;;;;5064121;28;20556;-52
2021/05/02 00:17:41;;;;;;;36.23;23.87;;;5.90;99.90;;;;;;5065333;28;20194;-51
2021/05/02 00:20:09;;;;;;;35.40;22.07;;;5.80;99.90;;;;;;5048372;28;20206;-52
2021/05/02 00:22:36;;;;;;;30.90;21.67;;;5.80;99.90;;;;;;5049999;28;20210;-49
2021/05/02 00:25:04;;;;;;;31.60;22.03;;;5.80;99.90;;;;;;5062097;28;20656;-53
2021/05/02 00:27:30;;;;;;;34.13;22.57;;;5.90;99.90;;;;;;5068440;28;20184;-49
2021/05/02 00:29:57;;;;;;;32.40;22.77;;;5.80;99.90;;;;;;5070527;28;20226;-49
2021/05/02 00:32:25;;;;;;;34.43;24.67;;;5.70;99.90;;;;;;5066632;28;20207;-52
2021/05/02 00:34:53;;;;;;;35.67;23.47;;;5.70;99.90;;;;;;5053998;28;20210;-51
2021/05/02 00:37:19;;;;;;;47.93;26.23;;;5.70;99.90;;;;;;5054836;28;20205;-52
2021/05/02 00:39:47;;;;;;;51.30;28.67;;;5.70;99.90;;;;;;5049750;28;20198;-50
2021/05/02 00:42:21;;;;;;;44.63;26.07;;;5.80;99.90;;;;;;5047152;28;20290;-52
2021/05/02 00:44:49;;;;;;;42.97;27.53;;;5.80;99.90;;;;;;5049798;28;20195;-49
2021/05/02 00:47:18;;;;;;;49.97;27.33;;;5.80;99.90;;;;;;5046253;28;20199;-53
2021/05/02 00:49:52;;;;;;;45.47;28.27;;;5.80;99.90;;;;;;5041117;28;20688;-48
2021/05/02 00:52:30;;;;;;;42.23;27.47;;;5.80;99.90;;;;;;5052374;28;20280;-50
2021/05/02 00:55:04;;;;;;;40.57;26.33;;;5.80;99.90;;;;;;5061882;28;20190;-50
2021/05/02 00:57:35;;;;;;;43.80;28.30;;;5.80;99.90;;;;;;5067290;28;20186;-48
2021/05/02 01:00:04;;;;;;;39.83;26.27;;;5.80;99.90;;;;;;5068666;28;20202;-51
2021/05/02 01:02:34;;;;;;;41.37;25.37;;;5.80;99.90;;;;;;5067418;28;20213;-48
2021/05/02 01:05:04;;;;;;;37.80;26.20;;;5.90;99.90;;;;;;5066043;28;20906;-52
2021/05/02 01:07:35;;;;;;;41.70;24.93;;;5.90;99.90;;;;;;5033996;28;20289;-50
2021/05/02 01:10:07;;;;;;;36.43;24.93;;;5.90;99.90;;;;;;5028963;28;20708;-50
2021/05/02 01:12:38;;;;;;;37.30;25.47;;;5.80;99.90;;;;;;5028335;28;20200;-49
2021/05/02 01:15:06;;;;;;;37.37;24.33;;;5.80;99.90;;;;;;5028484;28;20192;-50
2021/05/02 01:17:33;;;;;;;34.57;23.73;;;5.80;99.90;;;;;;5028441;28;20380;-52
2021/05/02 01:20:00;;;;;;;36.10;22.93;;;5.90;99.90;;;;;;5027669;28;20189;-53
2021/05/02 01:22:33;;;;;;;34.53;22.43;;;5.80;99.90;;;;;;5044364;28;20983;-50
2021/05/02 01:25:01;;;;;;;32.93;21.60;;;5.80;99.90;;;;;;5052816;28;20689;-54
2021/05/02 01:27:29;;;;;;;35.47;24.50;;;5.70;99.90;;;;;;5065545;28;20560;-53
2021/05/02 01:29:56;;;;;;;34.00;22.63;;;5.60;99.90;;;;;;5067929;28;20297;-49
2021/05/02 01:32:24;;;;;;;35.23;22.43;;;5.60;99.90;;;;;;5064098;28;20309;-49
2021/05/02 01:34:50;;;;;;;32.57;22.53;;;5.60;99.90;;;;;;5069020;28;20183;-51
2021/05/02 01:37:17;;;;;;;34.23;22.80;;;5.60;99.90;;;;;;5044356;28;20210;-55
2021/05/02 01:39:43;;;;;;;31.10;22.60;;;5.60;99.90;;;;;;5057258;28;20199;-49
2021/05/02 01:42:10;;;;;;;32.23;21.07;;;5.60;99.90;;;;;;5046856;28;20649;-52
2021/05/02 01:44:36;;;;;;;31.63;21.97;;;5.70;99.90;;;;;;5047925;28;20207;-48
2021/05/02 01:47:08;;;;;;;31.97;22.27;;;5.60;99.90;;;;;;5048848;28;20592;-48
2021/05/02 01:49:38;;;;;;;31.83;22.80;;;5.60;99.90;;;;;;5047409;28;20298;-49
2021/05/02 01:52:06;;;;;;;34.77;22.07;;;5.60;99.90;;;;;;5038283;28;20222;-53
2021/05/02 01:54:35;;;;;;;32.67;22.07;;;5.50;99.90;;;;;;5053067;28;20195;-49
2021/05/02 01:57:01;;;;;;;34.87;22.80;;;5.50;99.90;;;;;;5028502;28;20215;-54
2021/05/02 01:59:29;;;;;;;32.57;22.83;;;5.50;99.90;;;;;;5025784;28;20184;-50
2021/05/02 02:01:56;;;;;;;30.00;20.60;;;5.60;99.90;;;;;;5029659;28;20219;-49
2021/05/02 02:04:26;;;;;;;32.87;21.17;;;5.60;99.90;;;;;;5025600;28;20182;-49
2021/05/02 02:06:54;;;;;;;30.17;21.93;;;5.60;99.90;;;;;;5029257;28;20192;-49
2021/05/02 02:09:22;;;;;;;32.30;22.37;;;5.60;99.90;;;;;;5041033;28;20203;-49
2021/05/02 02:11:51;;;;;;;34.17;22.33;;;5.60;99.90;;;;;;5050531;28;20219;-52
2021/05/02 02:14:18;;;;;;;29.53;20.93;;;5.60;99.90;;;;;;5044055;28;20267;-50
2021/05/02 02:16:46;;;;;;;33.53;22.30;;;5.60;99.90;;;;;;5048495;28;20194;-51
2021/05/02 02:19:12;;;;;;;31.67;21.37;;;5.60;99.90;;;;;;5045236;28;20199;-52
2021/05/02 02:21:39;;;;;;;31.97;20.47;;;5.60;99.90;;;;;;5045874;28;20306;-51
2021/05/02 02:24:07;;;;;;;29.70;20.40;;;5.60;99.90;;;;;;5046977;28;20207;-51
2021/05/02 02:26:39;;;;;;;52.00;21.37;;;5.60;99.90;;;;;;5057567;28;20279;-52
2021/05/02 02:29:08;;;;;;;34.47;22.57;;;5.70;99.90;;;;;;5065979;28;20227;-54
2021/05/02 02:31:35;;;;;;;32.17;22.27;;;5.60;99.90;;;;;;5066835;28;20210;-50
2021/05/02 02:34:05;;;;;;;33.27;22.37;;;5.60;99.90;;;;;;5067500;28;20199;-54
2021/05/02 02:36:32;;;;;;;30.93;21.70;;;5.50;99.90;;;;;;5065853;28;20217;-52
2021/05/02 02:39:00;;;;;;;37.03;24.33;;;5.60;99.90;;;;;;5050653;28;20203;-52
2021/05/02 02:41:28;;;;;;;32.97;22.47;;;5.60;99.90;;;;;;5053252;28;20853;-50
2021/05/02 02:43:57;;;;;;;37.90;24.17;;;5.60;99.90;;;;;;5047122;28;20222;-51
2021/05/02 02:46:24;;;;;;;44.97;25.30;;;5.60;99.90;;;;;;5052490;28;21077;-50
2021/05/02 02:48:54;;;;;;;37.93;24.13;;;5.60;99.90;;;;;;5066894;28;20195;-51
2021/05/02 02:51:24;;;;;;;36.73;23.63;;;5.60;99.90;;;;;;5064644;28;20804;-51
2021/05/02 02:53:52;;;;;;;34.17;21.93;;;5.60;99.90;;;;;;5068747;28;20248;-54
2021/05/02 02:56:20;;;;;;;36.53;24.27;;;5.60;99.90;;;;;;5041950;28;20257;-50
2021/05/02 02:58:55;;;;;;;36.30;24.40;;;5.60;99.90;;;;;;5066651;28;20202;-49
2021/05/02 03:01:21;;;;;;;36.43;24.23;;;5.60;99.90;;;;;;5064162;28;20193;-50
2021/05/02 03:03:49;;;;;;;36.50;23.30;;;5.60;99.90;;;;;;5068653;28;20183;-49
2021/05/02 03:06:19;;;;;;;33.17;23.30;;;5.60;99.90;;;;;;5064780;28;20633;-52
2021/05/02 03:08:48;;;;;;;42.63;26.70;;;5.60;99.90;;;;;;5067453;28;20205;-52
2021/05/02 03:11:16;;;;;;;37.67;25.03;;;5.70;99.90;;;;;;5042883;28;20237;-52
2021/05/02 03:13:44;;;;;;;40.53;25.67;;;5.70;99.90;;;;;;5050236;28;20317;-49
2021/05/02 03:16:10;;;;;;;37.13;25.70;;;5.70;99.90;;;;;;5053824;28;20199;-55
2021/05/02 03:18:48;;;;;;;36.93;26.00;;;5.70;99.90;;;;;;5064004;28;20186;-52
2021/05/02 03:21:18;;;;;;;42.27;25.70;;;5.70;99.90;;;;;;5058866;28;20209;-51
2021/05/02 03:23:46;;;;;;;42.47;26.20;;;5.70;99.90;;;;;;5057512;28;20214;-53
2021/05/02 03:26:13;;;;;;;44.27;27.73;;;5.80;99.90;;;;;;5042582;28;20211;-53
2021/05/02 03:28:46;;;;;;;42.57;26.63;;;5.80;99.90;;;;;;5062717;28;20199;-50
2021/05/02 03:31:14;;;;;;;36.60;25.87;;;5.80;99.90;;;;;;5063575;28;20593;-51
2021/05/02 03:33:46;;;;;;;42.83;26.73;;;5.80;99.90;;;;;;5065068;28;20191;-50
2021/05/02 03:36:16;;;;;;;41.53;26.97;;;5.80;99.90;;;;;;5061221;28;20282;-53
2021/05/02 03:38:47;;;;;;;42.53;26.37;;;5.80;99.90;;;;;;5064368;28;20573;-55
2021/05/02 03:41:14;;;;;;;40.63;26.50;;;5.80;99.90;;;;;;5043909;28;20204;-53
2021/05/02 03:43:40;;;;;;;41.30;27.37;;;5.80;99.90;;;;;;5055394;28;20683;-50
2021/05/02 03:46:22;;;;;;;42.63;27.77;;;5.80;99.90;;;;;;5045306;28;20203;-55
2021/05/02 03:48:49;;;;;;;41.10;26.67;;;5.80;99.90;;;;;;5046866;28;20226;-50
2021/05/02 03:51:15;;;;;;;38.50;25.53;;;5.80;99.90;;;;;;5042324;28;20222;-52
2021/05/02 03:53:41;;;;;;;42.13;26.37;;;5.90;99.90;;;;;;5056690;28;20195;-55
2021/05/02 03:56:08;;;;;;;38.80;26.17;;;5.90;99.90;;;;;;5057407;28;20209;-50
2021/05/02 03:58:34;;;;;;;38.07;25.70;;;5.90;99.90;;;;;;5051540;28;20197;-49
2021/05/02 04:01:00;;;;;;;38.63;26.43;;;5.90;99.90;;;;;;5046010;28;20203;-54
2021/05/02 04:03:27;;;;;;;39.67;26.50;;;5.90;99.90;;;;;;5044045;28;20214;-54
2021/05/02 04:05:53;;;;;;;42.73;26.43;;;5.90;99.90;;;;;;5047017;28;20247;-54
2021/05/02 04:08:19;;;;;;;40.87;27.17;;;5.90;99.90;;;;;;5042691;28;20449;-50
2021/05/02 04:10:45;;;;;;;42.70;27.67;;;5.90;99.90;;;;;;5046676;28;20227;-49
2021/05/02 04:13:12;;;;;;;44.53;28.03;;;5.90;99.90;;;;;;5035186;28;20264;-54
2021/05/02 04:15:38;;;;;;;107.33;29.23;;;5.90;99.90;;;;;;5054186;28;20218;-53
2021/05/02 04:18:04;;;;;;;115.63;30.47;;;5.90;99.90;;;;;;5045179;28;20198;-55
2021/05/02 04:20:31;;;;;;;111.33;31.07;;;5.90;99.90;;;;;;5044872;28;20184;-53
2021/05/02 04:22:57;;;;;;;132.73;31.50;;;5.80;99.90;;;;;;5053475;28;20219;-52
2021/05/02 04:25:23;;;;;;;119.80;31.03;;;5.80;99.90;;;;;;5058244;28;20771;-51
2021/05/02 04:27:49;;;;;;;154.30;32.10;;;5.80;99.90;;;;;;5066123;28;20190;-49
2021/05/02 04:30:17;;;;;;;112.50;30.33;;;5.70;99.90;;;;;;5038633;28;20214;-53
2021/05/02 04:32:43;;;;;;;293.53;37.53;;;5.70;99.90;;;;;;5047905;28;20581;-50
2021/05/02 04:35:10;;;;;;;251.63;34.80;;;5.70;99.90;;;;;;5044250;28;20217;-51
2021/05/02 04:37:36;;;;;;;170.73;32.20;;;5.70;99.90;;;;;;5027690;28;21020;-51
2021/05/02 04:40:03;;;;;;;329.63;41.30;;;5.60;99.90;;;;;;5048232;28;20219;-52
2021/05/02 04:42:29;;;;;;;249.23;36.37;;;5.60;99.90;;;;;;5056481;28;20215;-52
2021/05/02 04:44:56;;;;;;;104.03;32.10;;;5.60;99.90;;;;;;5044741;28;20285;-52
2021/05/02 04:47:23;;;;;;;132.63;33.57;;;5.70;99.90;;;;;;5054594;28;20186;-50
2021/05/02 04:49:50;;;;;;;98.00;32.10;;;5.70;99.90;;;;;;5066312;28;20297;-51
2021/05/02 04:52:16;;;;;;;80.40;30.83;;;5.70;99.90;;;;;;5062826;28;20244;-53
2021/05/02 04:54:42;;;;;;;99.40;30.67;;;5.70;99.90;;;;;;5066619;28;20194;-50
2021/05/02 04:57:08;;;;;;;137.67;33.40;;;5.80;99.90;;;;;;5046938;28;20675;-52
2021/05/02 04:59:35;;;;;;;133.33;31.83;;;5.70;99.90;;;;;;5047929;28;20451;-51
2021/05/02 05:02:01;;;;;;;126.90;32.00;;;5.70;99.90;;;;;;5057888;28;20761;-54
2021/05/02 05:04:28;;;;;;;109.93;32.23;;;5.70;99.90;;;;;;5063060;28;20179;-50
2021/05/02 05:06:55;;;;;;;121.23;32.50;;;5.80;99.90;;;;;;5066709;28;20187;-50
2021/05/02 05:09:23;;;;;;;113.40;30.00;;;5.80;99.90;;;;;;5065865;28;20207;-52
2021/05/02 05:11:49;;;;;;;205.20;34.47;;;5.80;99.90;;;;;;5069721;28;20352;-52
2021/05/02 05:14:15;;;;;;;170.40;33.50;;;5.80;99.90;;;;;;5053802;28;20205;-53
2021/05/02 05:16:41;;;;;;;86.87;30.10;;;5.80;99.90;;;;;;5044458;28;20199;-52
2021/05/02 05:19:07;;;;;;;146.90;34.67;;;5.80;99.90;;;;;;5060887;28;20206;-49
2021/05/02 05:21:34;;;;;;;178.80;34.77;;;5.80;99.90;;;;;;5055352;28;20230;-54
2021/05/02 05:24:00;;;;;;;115.30;32.13;;;5.80;99.90;;;;;;5058569;28;20893;-49
2021/05/02 05:26:28;;;;;;;148.67;35.00;;;5.80;99.90;;;;;;5054657;28;20206;-52
2021/05/02 05:28:54;;;;;;;128.23;33.23;;;5.80;99.90;;;;;;5056384;28;20192;-49
2021/05/02 05:31:20;;;;;;;147.60;34.33;;;5.80;99.90;;;;;;5032235;28;20208;-53
2021/05/02 05:33:46;;;;;;;98.00;32.70;;;5.70;99.90;;;;;;5051112;28;20275;-51
2021/05/02 05:36:13;;;;;;;88.50;33.60;;;5.80;99.90;;;;;;5041486;28;20688;-50
2021/05/02 05:38:40;;;;;;;64.40;30.63;;;5.80;99.90;;;;;;5041252;28;20630;-52
2021/05/02 05:41:06;;;;;;;89.73;32.33;;;5.80;99.90;;;;;;5041912;28;20597;-50
2021/05/02 05:43:32;;;;;;;79.73;32.23;;;5.90;99.90;;;;;;5054127;28;20222;-53
2021/05/02 05:45:59;;;;;;;78.17;31.20;;;5.90;99.90;;;;;;5030709;28;20234;-50
2021/05/02 05:48:25;;;;;;;95.93;30.97;;;5.90;99.90;;;;;;5055832;28;20257;-53
2021/05/02 05:50:51;;;;;;;65.30;31.10;;;5.90;99.90;;;;;;5055187;28;20218;-50
2021/05/02 05:53:17;;;;;;;77.30;32.13;;;5.90;99.90;;;;;;5037646;28;20238;-51
2021/05/02 05:55:44;;;;;;;63.93;30.83;;;5.90;99.90;;;;;;5042356;28;20922;-50
2021/05/02 05:58:11;;;;;;;66.57;31.30;;;5.90;99.90;;;;;;5047555;28;20208;-50
2021/05/02 06:00:37;;;;;;;61.10;33.17;;;6.00;99.90;;;;;;5017883;28;20200;-55
2021/05/02 06:03:04;;;;;;;60.80;32.93;;;6.00;99.90;;;;;;5058471;28;20321;-50
2021/05/02 06:05:31;;;;;;;61.10;34.87;;;6.10;99.90;;;;;;5056509;28;20198;-52
2021/05/02 06:07:57;;;;;;;64.20;34.57;;;6.10;99.90;;;;;;5041467;28;20206;-51
2021/05/02 06:10:23;;;;;;;61.23;35.07;;;6.10;99.90;;;;;;5042720;28;20234;-53
2021/05/02 06:12:50;;;;;;;61.67;34.80;;;6.20;99.90;;;;;;5041688;28;20373;-49
2021/05/02 06:15:17;;;;;;;57.67;33.17;;;6.30;99.90;;;;;;5049452;28;20203;-53
2021/05/02 06:17:43;;;;;;;64.60;35.53;;;6.30;99.90;;;;;;5041042;28;20204;-49
2021/05/02 06:20:10;;;;;;;62.20;35.70;;;6.40;99.90;;;;;;5065923;28;20632;-48
2021/05/02 06:22:36;;;;;;;56.40;33.50;;;6.50;99.90;;;;;;5050256;28;20235;-53
2021/05/02 06:25:03;;;;;;;62.20;34.93;;;6.60;99.90;;;;;;5043130;28;20203;-53
2021/05/02 06:27:29;;;;;;;53.87;32.60;;;6.70;99.90;;;;;;5046003;28;20195;-51
2021/05/02 06:29:56;;;;;;;54.13;32.63;;;6.80;99.90;;;;;;5046392;28;20972;-49
2021/05/02 06:32:22;;;;;;;55.90;31.90;;;6.90;99.90;;;;;;5035948;28;20215;-52
2021/05/02 06:34:48;;;;;;;52.33;31.53;;;6.90;99.90;;;;;;5054737;28;20193;-52
2021/05/02 06:37:14;;;;;;;51.80;31.80;;;7.00;99.90;;;;;;5056144;28;20278;-51
2021/05/02 06:39:42;;;;;;;49.23;29.70;;;7.00;99.90;;;;;;5038720;28;20338;-52
2021/05/02 06:42:08;;;;;;;49.17;29.30;;;6.90;99.90;;;;;;5055355;28;20261;-49
2021/05/02 06:44:34;;;;;;;45.07;28.03;;;7.00;99.90;;;;;;5044035;28;20199;-52
2021/05/02 06:47:01;;;;;;;46.40;29.33;;;7.00;99.90;;;;;;5046679;28;20195;-49
2021/05/02 06:49:27;;;;;;;44.40;28.37;;;7.10;99.90;;;;;;5040535;28;20221;-54
2021/05/02 06:51:53;;;;;;;43.50;27.10;;;7.20;99.90;;;;;;5053256;28;20325;-49
2021/05/02 06:54:20;;;;;;;40.33;27.53;;;7.20;99.90;;;;;;5042694;28;20256;-50
2021/05/02 06:56:46;;;;;;;39.77;27.33;;;7.20;99.90;;;;;;5038433;28;20203;-49
2021/05/02 06:59:12;;;;;;;40.30;27.37;;;7.30;99.90;;;;;;5046609;28;20208;-50
2021/05/02 07:01:38;;;;;;;43.57;27.57;;;7.30;99.90;;;;;;5043511;28;20207;-54
2021/05/02 07:04:05;;;;;;;41.70;27.83;;;7.40;99.90;;;;;;5035062;28;20210;-52
2021/05/02 07:06:32;;;;;;;41.37;28.30;;;7.50;99.90;;;;;;5038982;28;20193;-52
2021/05/02 07:08:58;;;;;;;40.03;26.30;;;7.60;99.90;;;;;;5045627;28;20212;-51
2021/05/02 07:11:24;;;;;;;37.13;24.67;;;7.70;99.90;;;;;;5048450;28;20223;-53
2021/05/02 07:13:50;;;;;;;35.73;24.23;;;7.80;99.90;;;;;;5055200;28;20196;-49
2021/05/02 07:16:17;;;;;;;35.30;23.97;;;7.80;99.90;;;;;;5056296;28;20194;-50
2021/05/02 07:18:43;;;;;;;36.23;24.10;;;7.80;99.90;;;;;;5047173;28;20191;-52
2021/05/02 07:21:11;;;;;;;32.53;23.40;;;7.90;99.90;;;;;;5040539;28;20202;-54
2021/05/02 07:23:38;;;;;;;34.63;22.60;;;7.90;99.90;;;;;;5049854;28;20243;-53
2021/05/02 07:26:05;;;;;;;34.33;23.00;;;8.10;99.90;;;;;;5046406;28;20319;-53
2021/05/02 07:28:31;;;;;;;34.13;22.93;;;8.20;99.90;;;;;;5054435;28;20195;-52
2021/05/02 07:30:57;;;;;;;30.73;21.97;;;8.30;99.90;;;;;;5053446;28;20241;-53
2021/05/02 07:33:26;;;;;;;31.30;21.40;;;8.30;99.90;;;;;;5058962;28;20232;-50
2021/05/02 07:35:52;;;;;;;30.20;22.07;;;8.50;99.90;;;;;;5038992;28;22300;-50
2021/05/02 07:38:19;;;;;;;32.50;21.93;;;8.60;99.90;;;;;;5053617;28;20556;-50
2021/05/02 07:40:46;;;;;;;31.80;23.10;;;8.60;99.90;;;;;;5044946;28;20373;-51
2021/05/02 07:43:12;;;;;;;29.10;21.33;;;8.70;99.90;;;;;;5047228;28;20553;-50
2021/05/02 07:45:38;;;;;;;25.00;18.90;;;8.80;99.90;;;;;;5050552;28;20206;-51
2021/05/02 07:48:05;;;;;;;26.87;17.40;;;8.70;99.90;;;;;;5045133;28;20209;-49
2021/05/02 07:50:32;;;;;;;26.60;18.80;;;8.80;99.90;;;;;;5036255;28;20220;-51
2021/05/02 07:52:58;;;;;;;21.93;18.00;;;9.00;99.90;;;;;;5045881;28;20907;-51
2021/05/02 07:55:25;;;;;;;23.77;18.63;;;9.10;99.90;;;;;;5059054;28;20225;-54
2021/05/02 07:57:51;;;;;;;22.73;17.67;;;9.10;99.90;;;;;;5032176;28;20207;-52
2021/05/02 08:00:19;;;;;;;20.07;16.53;;;9.20;99.90;;;;;;5049731;28;20196;-48
2021/05/02 08:02:45;;;;;;;23.33;17.00;;;9.20;99.90;;;;;;5049398;28;20301;-54
2021/05/02 08:05:12;;;;;;;19.30;15.83;;;9.30;99.90;;;;;;5041313;28;20206;-44
2021/05/02 08:07:39;;;;;;;18.47;14.90;;;9.50;99.90;;;;;;5020609;28;20208;-50
2021/05/02 08:10:07;;;;;;;18.30;14.20;;;9.50;99.90;;;;;;5059353;28;20214;-49
2021/05/02 08:12:34;;;;;;;19.20;15.53;;;9.60;99.90;;;;;;5033870;28;20233;-51
2021/05/02 08:15:01;;;;;;;18.30;14.83;;;9.70;99.90;;;;;;5040053;28;20229;-48
2021/05/02 08:17:27;;;;;;;16.27;13.50;;;9.70;99.90;;;;;;5040283;28;20248;-49
2021/05/02 08:19:53;;;;;;;16.17;14.00;;;9.80;99.90;;;;;;5050240;28;20199;-49
2021/05/02 08:22:19;;;;;;;16.67;13.33;;;9.80;99.90;;;;;;5032418;28;20215;-48
2021/05/02 08:24:45;;;;;;;15.93;13.17;;;9.90;99.90;;;;;;5045610;28;20314;-52
2021/05/02 08:27:12;;;;;;;15.80;14.13;;;9.80;99.90;;;;;;5036726;28;20258;-47
2021/05/02 08:29:39;;;;;;;19.33;13.90;;;9.90;99.90;;;;;;5043369;28;20226;-49
2021/05/02 08:32:05;;;;;;;16.93;14.00;;;9.90;99.90;;;;;;5050911;28;20215;-48
2021/05/02 08:34:32;;;;;;;13.93;12.23;;;9.80;99.90;;;;;;5055761;28;20203;-48
2021/05/02 08:36:58;;;;;;;15.30;12.77;;;9.80;99.90;;;;;;5045514;28;20892;-52
2021/05/02 08:39:24;;;;;;;12.70;11.30;;;9.80;99.90;;;;;;5032854;28;20234;-51
2021/05/02 08:41:51;;;;;;;15.73;12.17;;;9.90;99.90;;;;;;5039650;28;20282;-49
2021/05/02 08:44:20;;;;;;;14.47;12.27;;;9.90;99.90;;;;;;5042122;28;20907;-50
2021/05/02 08:46:47;;;;;;;12.77;11.30;;;9.90;99.90;;;;;;5044231;28;20901;-52
2021/05/02 08:49:13;;;;;;;12.50;11.20;;;9.90;99.90;;;;;;5035732;28;20207;-53
2021/05/02 08:51:39;;;;;;;14.17;11.37;;;9.90;99.90;;;;;;5040504;28;20329;-52
2021/05/02 08:54:06;;;;;;;15.67;12.13;;;10.00;99.90;;;;;;5037509;28;20199;-50
2021/05/02 08:56:32;;;;;;;13.57;12.17;;;10.00;99.90;;;;;;5036292;28;20660;-48
2021/05/02 08:58:58;;;;;;;14.03;12.53;;;10.10;99.90;;;;;;5042579;28;20211;-51
2021/05/02 09:01:28;;;;;;;13.13;11.63;;;10.10;99.90;;;;;;5053603;28;20683;-51
2021/05/02 09:03:55;;;;;;;13.07;10.03;;;10.20;99.90;;;;;;5045347;28;20200;-48
2021/05/02 09:06:23;;;;;;;11.93;10.33;;;10.30;99.90;;;;;;5051764;28;20554;-49
2021/05/02 09:08:51;;;;;;;12.20;11.00;;;10.30;99.90;;;;;;5045012;28;20203;-50
2021/05/02 09:11:29;;;;;;;11.07;9.97;;;10.30;99.90;;;;;;5043533;28;20228;-51
2021/05/02 09:13:55;;;;;;;13.47;10.90;;;10.30;99.90;;;;;;5049403;28;20187;-51
2021/05/02 09:16:21;;;;;;;10.90;9.90;;;10.30;99.90;;;;;;5044832;28;20199;-50
2021/05/02 09:18:49;;;;;;;14.23;10.97;;;10.40;99.90;;;;;;5041050;28;20214;-49
2021/05/02 09:21:18;;;;;;;15.53;10.10;;;10.50;99.90;;;;;;5053759;28;20262;-47
2021/05/02 09:23:45;;;;;;;12.63;11.13;;;10.60;99.90;;;;;;5060307;28;20335;-47
2021/05/02 09:26:20;;;;;;;10.97;9.50;;;10.70;99.90;;;;;;5043932;28;20207;-51
2021/05/02 09:28:48;;;;;;;10.90;9.37;;;10.70;99.90;;;;;;5047782;28;20214;-53
2021/05/02 09:31:16;;;;;;;8.97;8.03;;;10.60;99.90;;;;;;5050983;28;20285;-47
2021/05/02 09:33:43;;;;;;;7.30;6.60;;;10.70;99.90;;;;;;5057895;28;20236;-46
2021/05/02 09:36:11;;;;;;;7.70;6.90;;;10.70;99.90;;;;;;5064181;28;20191;-48
2021/05/02 09:38:38;;;;;;;8.47;7.60;;;10.80;99.90;;;;;;5060620;28;20198;-49
2021/05/02 09:41:07;;;;;;;9.17;7.57;;;10.80;99.90;;;;;;5041152;28;20624;-50
2021/05/02 09:43:45;;;;;;;7.87;7.07;;;11.00;99.90;;;;;;5052040;28;20220;-52
2021/05/02 09:46:29;;;;;;;6.47;5.40;;;11.10;99.90;;;;;;5037060;28;20282;-48
2021/05/02 09:49:11;;;;;;;7.30;5.60;;;11.10;99.90;;;;;;5045276;28;20257;-46
2021/05/02 09:51:38;;;;;;;5.97;5.37;;;11.10;99.90;;;;;;5044749;28;20219;-48
2021/05/02 09:54:08;;;;;;;7.30;6.23;;;11.20;99.90;;;;;;5037591;28;20196;-49
2021/05/02 09:56:37;;;;;;;6.50;5.97;;;11.30;99.90;;;;;;5032879;28;20278;-51
2021/05/02 09:59:04;;;;;;;7.10;5.87;;;11.40;99.90;;;;;;5040230;28;20199;-54
2021/05/02 10:01:30;;;;;;;6.20;5.60;;;11.50;99.90;;;;;;5033363;28;20344;-51
2021/05/02 10:03:59;;;;;;;6.50;5.90;;;11.70;99.90;;;;;;5040634;28;20204;-51
2021/05/02 10:06:34;;;;;;;6.60;5.87;;;11.80;99.90;;;;;;5040588;28;20196;-48
2021/05/02 10:09:06;;;;;;;7.90;6.27;;;12.10;99.90;;;;;;5041996;28;20224;-50
2021/05/02 10:11:34;;;;;;;7.77;6.47;;;12.10;99.90;;;;;;5034105;28;20211;-53
2021/05/02 10:14:03;;;;;;;7.70;7.00;;;12.00;99.90;;;;;;5041364;28;20195;-47
2021/05/02 10:16:29;;;;;;;6.80;6.20;;;11.90;99.90;;;;;;5057241;28;20201;-51
2021/05/02 10:18:57;;;;;;;6.93;6.23;;;11.90;99.90;;;;;;5040632;28;20207;-48
2021/05/02 10:21:24;;;;;;;7.37;6.67;;;12.00;99.90;;;;;;5044189;28;20266;-51
2021/05/02 10:23:50;;;;;;;8.20;6.67;;;12.20;99.90;;;;;;5037656;28;20249;-50
2021/05/02 10:26:16;;;;;;;6.87;6.27;;;12.10;99.90;;;;;;5044454;28;20205;-51
2021/05/02 10:28:46;;;;;;;5.53;5.03;;;12.20;99.90;;;;;;5038591;28;20207;-50
2021/05/02 10:31:14;;;;;;;5.07;4.67;;;12.30;99.90;;;;;;5040823;28;20206;-51
2021/05/02 10:33:42;;;;;;;5.50;4.90;;;12.40;99.90;;;;;;5043161;28;20227;-47
2021/05/02 10:36:10;;;;;;;4.77;4.37;;;12.50;99.90;;;;;;5049219;28;20199;-50
2021/05/02 10:38:55;;;;;;;4.87;4.47;;;12.40;99.90;;;;;;5061527;28;20200;-49
2021/05/02 10:41:23;;;;;;;8.50;4.90;;;12.30;99.90;;;;;;5063359;28;20907;-52
2021/05/02 10:43:51;;;;;;;5.30;4.80;;;12.30;99.90;;;;;;5041462;28;20257;-50
2021/05/02 10:46:47;;;;;;;4.50;4.10;;;12.20;99.90;;;;;;5046411;28;20291;-50
2021/05/02 10:49:53;;;;;;;5.23;4.57;;;12.40;99.90;;;;;;5019687;28;20207;-49
2021/05/02 10:52:35;;;;;;;5.33;4.90;;;12.40;99.90;;;;;;5042703;28;20797;-49
2021/05/02 10:55:15;;;;;;;5.47;4.60;;;12.20;99.90;;;;;;5040779;28;20191;-48
2021/05/02 10:57:42;;;;;;;5.30;4.80;;;12.30;99.90;;;;;;5044530;28;20270;-48
2021/05/02 11:00:11;;;;;;;4.57;4.17;;;12.30;99.90;;;;;;5037710;28;20267;-50
2021/05/02 11:02:41;;;;;;;4.20;3.90;;;12.20;99.90;;;;;;5042862;28;20226;-48
2021/05/02 11:05:09;;;;;;;4.33;3.93;;;12.20;99.90;;;;;;5035271;28;20925;-50
2021/05/02 11:07:37;;;;;;;3.73;3.43;;;12.30;99.90;;;;;;5050019;28;20202;-52
2021/05/02 11:10:05;;;;;;;3.80;3.50;;;12.50;99.90;;;;;;5043476;28;20905;-50
2021/05/02 11:12:32;;;;;;;6.20;3.37;;;12.70;99.90;;;;;;5055362;28;20250;-51
2021/05/02 11:14:59;;;;;;;4.00;3.70;;;12.70;99.90;;;;;;5034151;28;20277;-50
2021/05/02 11:17:37;;;;;;;4.13;3.83;;;12.70;99.90;;;;;;5047128;28;20209;-54
2021/05/02 11:20:04;;;;;;;5.13;3.97;;;12.60;99.90;;;;;;5039493;28;20194;-49
2021/05/02 11:22:46;;;;;;;4.47;4.00;;;12.70;99.90;;;;;;5048662;28;20215;-49
2021/05/02 11:25:15;;;;;;;4.90;4.33;;;12.80;99.90;;;;;;5050748;28;20187;-51
2021/05/02 11:27:54;;;;;;;3.80;3.50;;;12.60;99.90;;;;;;5063240;28;20194;-48
2021/05/02 11:30:24;;;;;;;4.40;4.00;;;12.50;99.90;;;;;;5042597;28;20924;-53
2021/05/02 11:32:53;;;;;;;3.93;3.53;;;12.50;99.90;;;;;;5047404;28;20226;-52
2021/05/02 11:35:40;;;;;;;4.40;4.10;;;12.40;99.90;;;;;;5038250;28;20202;-49
2021/05/02 11:38:06;;;;;;;3.83;3.50;;;12.40;99.90;;;;;;5020353;28;20271;-51
2021/05/02 11:40:37;;;;;;;3.63;3.33;;;12.40;99.90;;;;;;5023678;28;20721;-51
2021/05/02 11:43:07;;;;;;;5.87;4.00;;;12.30;99.90;;;;;;5019100;28;20357;-52
2021/05/02 11:45:41;;;;;;;5.77;3.80;;;12.10;99.90;;;;;;5038364;28;20207;-50
2021/05/02 11:48:09;;;;;;;4.40;4.00;;;12.10;99.90;;;;;;5034223;28;20265;-50
2021/05/02 11:50:41;;;;;;;4.83;4.43;;;12.10;99.90;;;;;;5042196;28;20225;-50
2021/05/02 11:53:08;;;;;;;5.17;4.77;;;12.20;99.90;;;;;;5038751;28;20210;-51
2021/05/02 11:55:36;;;;;;;5.20;4.80;;;12.30;99.90;;;;;;5055387;28;20190;-51
2021/05/02 11:58:05;;;;;;;4.53;4.13;;;12.50;99.90;;;;;;5059322;28;20198;-48
2021/05/02 12:00:40;;;;;;;4.90;4.50;;;12.50;99.90;;;;;;5041553;28;20207;-50
2021/05/02 12:03:08;;;;;;;5.00;4.60;;;12.30;99.90;;;;;;5044202;28;21103;-53
2021/05/02 12:05:45;;;;;;;4.43;4.13;;;12.20;99.90;;;;;;5053642;28;20201;-49
2021/05/02 12:08:13;;;;;;;4.63;4.20;;;12.20;99.90;;;;;;5038437;28;20179;-48
2021/05/02 12:10:40;;;;;;;4.33;3.93;;;12.00;99.90;;;;;;5054419;28;20267;-52
2021/05/02 12:13:06;;;;;;;5.27;4.77;;;12.10;99.90;;;;;;5052159;28;20226;-52
2021/05/02 12:15:33;;;;;;;5.50;4.30;;;12.20;99.90;;;;;;5045263;28;20317;-53
2021/05/02 12:18:00;;;;;;;5.40;4.10;;;12.20;99.90;;;;;;5041288;28;20194;-49
2021/05/02 12:20:28;;;;;;;5.40;3.67;;;12.30;99.90;;;;;;5058141;28;20678;-47
2021/05/02 12:22:55;;;;;;;3.77;3.47;;;12.30;99.90;;;;;;5035100;28;20227;-50
2021/05/02 12:25:21;;;;;;;5.47;4.23;;;12.10;99.90;;;;;;5052079;28;20213;-49
2021/05/02 12:27:58;;;;;;;5.27;3.63;;;12.20;99.90;;;;;;5046694;28;20199;-49
2021/05/02 12:30:25;;;;;;;3.93;3.63;;;12.20;99.90;;;;;;5040361;28;20811;-51
2021/05/02 12:32:53;;;;;;;3.70;3.40;;;12.00;99.90;;;;;;5049448;28;20219;-51
2021/05/02 12:35:19;;;;;;;3.30;3.10;;;12.10;99.90;;;;;;5064322;28;20193;-47
2021/05/02 12:37:46;;;;;;;3.13;2.67;;;12.00;99.90;;;;;;5042916;28;20206;-49
2021/05/02 12:40:13;;;;;;;3.03;2.83;;;12.20;99.90;;;;;;5040398;28;20262;-48
2021/05/02 12:42:40;;;;;;;3.20;2.87;;;12.00;99.90;;;;;;5037146;28;20701;-48